Gove, KS (67736)

10:23 AM CDT on July 28, 2014 (GMT -0500)
Shaltz (KCBK) Elev 3186 ft | 39.43 °N, 101.05 °W | Change Station

Current weather conditions updated 8 minutes ago

Scattered Clouds
Scattered Clouds
75 °F
Feels Like 75 °F
N
16
Wind Variable Wind from ESE

Today is forecast to be nearly the same temperature as yesterday.

Today
High -- | Low -- °F
--% Chance of Precip.
Yesterday
High -- | Low -- °F
Precip. -- in
6:39 AM 8:56 PM
Waxing Crescent, 3% visible
Pressure 30.36 in
Visibility 10.0 miles
Clouds Scattered Clouds 4500 ft
Dew Point 57 °F
Humidity 53%
Rainfall 0.00 in
Snow Depth Not available.
UV 4 out of 12
Pollen 6.80 out of 12
Air Quality Not available.
Flu Activity Not available.
METAR KCBK 281515Z AUTO 12014KT 10SM SCT045 24/14 A3036 RMK AO2

More Conditions Fewer Conditions

Pressure 30.36 in
Visibility 10.0 miles
Clouds Scattered Clouds 4500 ft
Dew Point 57 °F
Humidity 53%
Rainfall 0.00 in
Snow Depth Not available.
UV 4 out of 12
Pollen 6.80 out of 12
Air Quality Not available.
Flu Activity Not available.
METAR KCBK 281515Z AUTO 12014KT 10SM SCT045 24/14 A3036 RMK AO2

More Conditions Fewer Conditions

10-Day Weather Forecast

Almanac

Astronomy

Jul. 28, 2014 Rise Set
Actual Time 6:39 AM CDT 8:56 PM CDT
Civil Twilight 6:09 AM CDT 9:26 PM CDT
Nautical Twilight 5:32 AM CDT 10:03 PM CDT
Astronomical Twilight 4:52 AM CDT 10:43 PM CDT
Moon 8:21 AM CDT 9:41 PM CDT
Length of Visible Light 15h 17m
Length of Day
14h 17m
Tomorrow will be 1m 48s shorter.
Waxing Crescent, 3% of the Moon is Illuminated
Today
Waxing Crescent
Aug 3
First Quarter
Aug 10
Full
Aug 17
Last Quarter
Aug 25
New

Today's Extremes

State Highs State Lows

Community

WunderPhotos

Upload Photos

1,738,384 photos uploaded!

Nearby

Snow Depth

Station Depth Elevation
No new snow has been reported.

Earthquake Activity

City Distance Mag. Time & Date
No recent earthquake activity has been reported nearby.
Minimum magnitude displayed is 2.5.

Coastal Water Temperatures

Place Temperature
No Stations Reporting

Nearby Weather Stations

Station Location Temp. Heat Index Dew Point Humidity Wind Precip. Elev Updated Type
MesoWest GRINEL , Grinnell, KS 69 °F - - - North  at  - 0.00 in / hr 2879 ft 8:25 AM CDT MADIS
MesoWest QUNTER , Park, KS 75 °F 73 °F - - North  at  - 0.00 in / hr 2638 ft 8:45 AM CDT MADIS

Show More Stations Show Fewer Stations